sensor_id;sensor_type;location;lat;lon;timestamp;P1;durP1;ratioP1;P2;durP2;ratioP2
75687;SDS011;64300;45.034;38.910;2022-10-26T00:00:34;10.20;;;4.10;;
75687;SDS011;64300;45.034;38.910;2022-10-26T00:04:07;10.02;;;4.30;;
75687;SDS011;64300;45.034;38.910;2022-10-26T00:09:49;7.63;;;4.28;;
75687;SDS011;64300;45.034;38.910;2022-10-26T00:12:40;8.15;;;3.95;;
75687;SDS011;64300;45.034;38.910;2022-10-26T00:15:33;10.98;;;5.32;;
75687;SDS011;64300;45.034;38.910;2022-10-26T00:18:20;12.88;;;5.05;;
75687;SDS011;64300;45.034;38.910;2022-10-26T00:21:02;10.27;;;4.47;;
75687;SDS011;64300;45.034;38.910;2022-10-26T00:23:37;11.38;;;5.15;;
75687;SDS011;64300;45.034;38.910;2022-10-26T00:26:12;12.55;;;4.97;;
75687;SDS011;64300;45.034;38.910;2022-10-26T00:28:52;10.52;;;4.60;;
75687;SDS011;64300;45.034;38.910;2022-10-26T00:31:26;9.35;;;5.10;;
75687;SDS011;64300;45.034;38.910;2022-10-26T00:33:55;9.30;;;4.55;;
75687;SDS011;64300;45.034;38.910;2022-10-26T00:36:23;10.50;;;4.80;;
75687;SDS011;64300;45.034;38.910;2022-10-26T00:38:50;9.73;;;4.38;;
75687;SDS011;64300;45.034;38.910;2022-10-26T00:41:29;8.98;;;3.92;;
75687;SDS011;64300;45.034;38.910;2022-10-26T00:44:37;9.32;;;4.47;;
75687;SDS011;64300;45.034;38.910;2022-10-26T00:47:10;8.57;;;4.05;;
75687;SDS011;64300;45.034;38.910;2022-10-26T00:49:46;8.02;;;3.97;;
75687;SDS011;64300;45.034;38.910;2022-10-26T00:52:16;9.38;;;4.20;;
75687;SDS011;64300;45.034;38.910;2022-10-26T00:54:44;8.48;;;4.28;;
75687;SDS011;64300;45.034;38.910;2022-10-26T00:57:11;9.13;;;3.92;;
75687;SDS011;64300;45.034;38.910;2022-10-26T00:59:39;7.65;;;4.53;;
75687;SDS011;64300;45.034;38.910;2022-10-26T01:02:08;7.85;;;4.38;;
75687;SDS011;64300;45.034;38.910;2022-10-26T01:04:34;12.20;;;4.70;;
75687;SDS011;64300;45.034;38.910;2022-10-26T01:07:00;13.82;;;4.93;;
75687;SDS011;64300;45.034;38.910;2022-10-26T01:09:29;12.23;;;4.32;;
75687;SDS011;64300;45.034;38.910;2022-10-26T01:11:57;11.27;;;4.10;;
75687;SDS011;64300;45.034;38.910;2022-10-26T01:14:23;9.07;;;3.50;;
75687;SDS011;64300;45.034;38.910;2022-10-26T01:19:59;12.48;;;3.80;;
75687;SDS011;64300;45.034;38.910;2022-10-26T01:32:49;8.55;;;3.45;;
75687;SDS011;64300;45.034;38.910;2022-10-26T01:38:21;9.73;;;3.25;;
75687;SDS011;64300;45.034;38.910;2022-10-26T01:41:55;11.30;;;3.63;;
75687;SDS011;64300;45.034;38.910;2022-10-26T01:44:01;11.43;;;3.90;;
75687;SDS011;64300;45.034;38.910;2022-10-26T01:46:33;7.68;;;4.03;;
75687;SDS011;64300;45.034;38.910;2022-10-26T01:49:04;12.75;;;4.00;;
75687;SDS011;64300;45.034;38.910;2022-10-26T02:23:37;13.68;;;6.25;;
75687;SDS011;64300;45.034;38.910;2022-10-26T02:26:15;11.57;;;5.85;;
75687;SDS011;64300;45.034;38.910;2022-10-26T02:28:57;13.15;;;6.32;;
75687;SDS011;64300;45.034;38.910;2022-10-26T02:31:29;12.20;;;6.82;;
75687;SDS011;64300;45.034;38.910;2022-10-26T02:34:00;14.02;;;7.40;;
75687;SDS011;64300;45.034;38.910;2022-10-26T02:36:33;14.23;;;7.25;;
75687;SDS011;64300;45.034;38.910;2022-10-26T02:39:03;15.20;;;7.35;;
75687;SDS011;64300;45.034;38.910;2022-10-26T02:41:30;14.45;;;7.85;;
75687;SDS011;64300;45.034;38.910;2022-10-26T02:44:00;14.52;;;8.27;;
75687;SDS011;64300;45.034;38.910;2022-10-26T02:46:37;14.00;;;8.35;;
75687;SDS011;64300;45.034;38.910;2022-10-26T02:49:04;14.93;;;7.85;;
75687;SDS011;64300;45.034;38.910;2022-10-26T02:51:35;15.38;;;8.07;;
75687;SDS011;64300;45.034;38.910;2022-10-26T02:54:18;14.20;;;8.13;;
75687;SDS011;64300;45.034;38.910;2022-10-26T03:00:05;18.40;;;9.48;;
75687;SDS011;64300;45.034;38.910;2022-10-26T03:02:33;19.60;;;9.98;;
75687;SDS011;64300;45.034;38.910;2022-10-26T03:16:23;13.68;;;8.40;;
75687;SDS011;64300;45.034;38.910;2022-10-26T03:18:49;16.30;;;9.45;;
75687;SDS011;64300;45.034;38.910;2022-10-26T03:21:15;15.52;;;9.05;;
75687;SDS011;64300;45.034;38.910;2022-10-26T03:23:41;19.40;;;9.32;;
75687;SDS011;64300;45.034;38.910;2022-10-26T03:26:12;18.10;;;9.07;;
75687;SDS011;64300;45.034;38.910;2022-10-26T03:28:40;17.67;;;9.55;;
75687;SDS011;64300;45.034;38.910;2022-10-26T03:31:12;19.33;;;9.68;;
75687;SDS011;64300;45.034;38.910;2022-10-26T03:33:39;15.00;;;9.43;;
75687;SDS011;64300;45.034;38.910;2022-10-26T03:36:05;15.57;;;9.18;;
75687;SDS011;64300;45.034;38.910;2022-10-26T03:38:31;16.10;;;10.50;;
75687;SDS011;64300;45.034;38.910;2022-10-26T03:40:57;19.13;;;10.70;;
75687;SDS011;64300;45.034;38.910;2022-10-26T03:43:23;18.65;;;10.45;;
75687;SDS011;64300;45.034;38.910;2022-10-26T03:45:49;18.10;;;10.10;;
75687;SDS011;64300;45.034;38.910;2022-10-26T03:48:30;18.45;;;11.13;;
75687;SDS011;64300;45.034;38.910;2022-10-26T03:51:32;19.20;;;10.88;;
75687;SDS011;64300;45.034;38.910;2022-10-26T03:53:58;21.90;;;10.38;;
75687;SDS011;64300;45.034;38.910;2022-10-26T03:56:27;17.45;;;10.73;;
75687;SDS011;64300;45.034;38.910;2022-10-26T03:59:21;18.15;;;9.57;;
75687;SDS011;64300;45.034;38.910;2022-10-26T04:01:53;18.80;;;9.10;;
75687;SDS011;64300;45.034;38.910;2022-10-26T04:07:18;20.55;;;9.68;;
75687;SDS011;64300;45.034;38.910;2022-10-26T04:09:47;16.67;;;9.65;;
75687;SDS011;64300;45.034;38.910;2022-10-26T04:12:22;14.43;;;9.07;;
75687;SDS011;64300;45.034;38.910;2022-10-26T04:16:00;14.93;;;9.45;;
75687;SDS011;64300;45.034;38.910;2022-10-26T04:19:09;16.65;;;9.50;;
75687;SDS011;64300;45.034;38.910;2022-10-26T04:29:48;16.67;;;10.18;;
75687;SDS011;64300;45.034;38.910;2022-10-26T04:33:07;15.43;;;8.85;;
75687;SDS011;64300;45.034;38.910;2022-10-26T04:43:03;13.80;;;6.15;;
75687;SDS011;64300;45.034;38.910;2022-10-26T04:45:46;11.20;;;5.47;;
75687;SDS011;64300;45.034;38.910;2022-10-26T04:48:27;10.63;;;5.80;;
75687;SDS011;64300;45.034;38.910;2022-10-26T04:51:15;10.90;;;5.65;;
75687;SDS011;64300;45.034;38.910;2022-10-26T04:53:49;11.15;;;5.63;;
75687;SDS011;64300;45.034;38.910;2022-10-26T04:56:48;8.63;;;4.90;;
75687;SDS011;64300;45.034;38.910;2022-10-26T04:59:29;15.27;;;4.53;;
75687;SDS011;64300;45.034;38.910;2022-10-26T05:02:36;8.23;;;4.20;;
75687;SDS011;64300;45.034;38.910;2022-10-26T05:05:35;9.38;;;4.10;;
75687;SDS011;64300;45.034;38.910;2022-10-26T05:13:00;8.20;;;4.30;;
75687;SDS011;64300;45.034;38.910;2022-10-26T05:52:43;9.70;;;3.80;;
75687;SDS011;64300;45.034;38.910;2022-10-26T05:55:14;8.73;;;4.32;;
75687;SDS011;64300;45.034;38.910;2022-10-26T05:57:42;6.20;;;3.72;;
75687;SDS011;64300;45.034;38.910;2022-10-26T06:00:11;11.35;;;4.10;;
75687;SDS011;64300;45.034;38.910;2022-10-26T06:02:45;9.65;;;4.00;;
75687;SDS011;64300;45.034;38.910;2022-10-26T06:05:17;8.48;;;4.47;;
75687;SDS011;64300;45.034;38.910;2022-10-26T06:07:47;7.90;;;4.20;;
75687;SDS011;64300;45.034;38.910;2022-10-26T06:10:16;12.73;;;3.85;;
75687;SDS011;64300;45.034;38.910;2022-10-26T06:12:43;10.15;;;4.50;;
75687;SDS011;64300;45.034;38.910;2022-10-26T06:15:19;12.25;;;4.18;;
75687;SDS011;64300;45.034;38.910;2022-10-26T06:26:26;10.80;;;4.53;;
75687;SDS011;64300;45.034;38.910;2022-10-26T06:28:58;10.85;;;4.57;;
75687;SDS011;64300;45.034;38.910;2022-10-26T06:31:43;8.50;;;3.88;;
75687;SDS011;64300;45.034;38.910;2022-10-26T06:34:09;9.38;;;4.07;;
75687;SDS011;64300;45.034;38.910;2022-10-26T06:36:39;13.15;;;3.90;;
75687;SDS011;64300;45.034;38.910;2022-10-26T06:39:06;11.48;;;3.67;;
75687;SDS011;64300;45.034;38.910;2022-10-26T06:41:37;10.25;;;3.83;;
75687;SDS011;64300;45.034;38.910;2022-10-26T06:44:03;7.60;;;3.53;;
75687;SDS011;64300;45.034;38.910;2022-10-26T06:46:35;7.50;;;3.72;;
75687;SDS011;64300;45.034;38.910;2022-10-26T06:51:51;8.68;;;3.50;;
75687;SDS011;64300;45.034;38.910;2022-10-26T06:57:20;10.93;;;3.25;;
75687;SDS011;64300;45.034;38.910;2022-10-26T06:59:49;9.38;;;3.10;;
75687;SDS011;64300;45.034;38.910;2022-10-26T07:02:16;7.00;;;3.10;;
75687;SDS011;64300;45.034;38.910;2022-10-26T07:04:42;8.43;;;3.20;;
75687;SDS011;64300;45.034;38.910;2022-10-26T07:07:13;12.10;;;3.42;;
75687;SDS011;64300;45.034;38.910;2022-10-26T07:09:46;7.65;;;3.33;;
75687;SDS011;64300;45.034;38.910;2022-10-26T07:12:12;7.47;;;3.17;;
75687;SDS011;64300;45.034;38.910;2022-10-26T07:14:38;6.55;;;2.80;;
75687;SDS011;64300;45.034;38.910;2022-10-26T07:17:05;7.75;;;3.10;;
75687;SDS011;64300;45.034;38.910;2022-10-26T07:19:34;8.38;;;3.67;;
75687;SDS011;64300;45.034;38.910;2022-10-26T07:22:00;7.68;;;3.20;;
75687;SDS011;64300;45.034;38.910;2022-10-26T07:24:27;11.10;;;3.35;;
75687;SDS011;64300;45.034;38.910;2022-10-26T07:26:54;8.43;;;3.25;;
75687;SDS011;64300;45.034;38.910;2022-10-26T07:29:24;7.72;;;3.60;;
75687;SDS011;64300;45.034;38.910;2022-10-26T07:31:51;8.10;;;4.10;;
75687;SDS011;64300;45.034;38.910;2022-10-26T07:34:18;10.57;;;4.32;;
75687;SDS011;64300;45.034;38.910;2022-10-26T07:36:44;11.88;;;3.50;;
75687;SDS011;64300;45.034;38.910;2022-10-26T07:39:12;8.20;;;3.42;;
75687;SDS011;64300;45.034;38.910;2022-10-26T07:41:44;7.15;;;3.15;;
75687;SDS011;64300;45.034;38.910;2022-10-26T07:44:11;10.23;;;3.67;;
75687;SDS011;64300;45.034;38.910;2022-10-26T07:46:39;6.82;;;3.08;;
75687;SDS011;64300;45.034;38.910;2022-10-26T07:49:05;16.45;;;3.20;;
75687;SDS011;64300;45.034;38.910;2022-10-26T07:51:31;8.30;;;3.33;;
75687;SDS011;64300;45.034;38.910;2022-10-26T07:53:57;9.75;;;3.47;;
75687;SDS011;64300;45.034;38.910;2022-10-26T07:56:23;10.30;;;3.60;;
75687;SDS011;64300;45.034;38.910;2022-10-26T07:58:52;12.23;;;3.97;;
75687;SDS011;64300;45.034;38.910;2022-10-26T08:01:19;8.88;;;4.03;;
75687;SDS011;64300;45.034;38.910;2022-10-26T08:03:50;8.13;;;4.03;;
75687;SDS011;64300;45.034;38.910;2022-10-26T08:06:17;8.82;;;4.35;;
75687;SDS011;64300;45.034;38.910;2022-10-26T08:08:43;9.95;;;4.78;;
75687;SDS011;64300;45.034;38.910;2022-10-26T08:11:11;10.13;;;4.18;;
75687;SDS011;64300;45.034;38.910;2022-10-26T08:13:37;10.77;;;3.80;;
75687;SDS011;64300;45.034;38.910;2022-10-26T08:16:04;8.30;;;3.72;;
75687;SDS011;64300;45.034;38.910;2022-10-26T08:18:31;11.82;;;3.20;;
75687;SDS011;64300;45.034;38.910;2022-10-26T08:21:01;7.78;;;3.08;;
75687;SDS011;64300;45.034;38.910;2022-10-26T08:23:32;8.13;;;2.92;;
75687;SDS011;64300;45.034;38.910;2022-10-26T08:25:58;9.93;;;2.80;;
75687;SDS011;64300;45.034;38.910;2022-10-26T08:28:25;11.18;;;2.75;;
75687;SDS011;64300;45.034;38.910;2022-10-26T08:30:51;9.05;;;2.88;;
75687;SDS011;64300;45.034;38.910;2022-10-26T08:33:17;12.73;;;3.17;;
75687;SDS011;64300;45.034;38.910;2022-10-26T08:35:43;7.72;;;2.83;;
75687;SDS011;64300;45.034;38.910;2022-10-26T08:38:09;8.25;;;2.42;;
75687;SDS011;64300;45.034;38.910;2022-10-26T08:40:36;5.38;;;2.55;;
75687;SDS011;64300;45.034;38.910;2022-10-26T08:45:55;8.32;;;2.88;;
75687;SDS011;64300;45.034;38.910;2022-10-26T08:48:44;10.35;;;2.97;;
75687;SDS011;64300;45.034;38.910;2022-10-26T08:51:24;9.18;;;3.30;;
75687;SDS011;64300;45.034;38.910;2022-10-26T08:54:09;6.63;;;2.65;;
75687;SDS011;64300;45.034;38.910;2022-10-26T08:56:43;7.97;;;2.75;;
75687;SDS011;64300;45.034;38.910;2022-10-26T09:02:00;6.90;;;2.67;;
75687;SDS011;64300;45.034;38.910;2022-10-26T09:04:28;7.63;;;2.80;;
75687;SDS011;64300;45.034;38.910;2022-10-26T09:12:28;6.55;;;2.40;;
75687;SDS011;64300;45.034;38.910;2022-10-26T09:15:13;4.50;;;1.95;;
75687;SDS011;64300;45.034;38.910;2022-10-26T09:17:56;4.07;;;2.00;;
75687;SDS011;64300;45.034;38.910;2022-10-26T09:25:33;8.63;;;1.88;;
75687;SDS011;64300;45.034;38.910;2022-10-26T09:28:04;8.20;;;1.63;;
75687;SDS011;64300;45.034;38.910;2022-10-26T09:30:32;5.05;;;1.48;;
75687;SDS011;64300;45.034;38.910;2022-10-26T09:33:05;3.83;;;1.55;;
75687;SDS011;64300;45.034;38.910;2022-10-26T09:35:43;4.35;;;1.80;;
75687;SDS011;64300;45.034;38.910;2022-10-26T09:40:59;5.53;;;2.10;;
75687;SDS011;64300;45.034;38.910;2022-10-26T09:43:38;5.35;;;1.75;;
75687;SDS011;64300;45.034;38.910;2022-10-26T09:46:21;6.80;;;1.95;;
75687;SDS011;64300;45.034;38.910;2022-10-26T09:48:53;4.57;;;1.70;;
75687;SDS011;64300;45.034;38.910;2022-10-26T09:51:22;5.00;;;2.42;;
75687;SDS011;64300;45.034;38.910;2022-10-26T09:53:50;6.13;;;1.98;;
75687;SDS011;64300;45.034;38.910;2022-10-26T09:56:46;4.32;;;1.55;;
75687;SDS011;64300;45.034;38.910;2022-10-26T09:59:17;5.00;;;2.05;;
75687;SDS011;64300;45.034;38.910;2022-10-26T10:01:46;5.90;;;2.40;;
75687;SDS011;64300;45.034;38.910;2022-10-26T10:06:42;4.80;;;2.08;;
75687;SDS011;64300;45.034;38.910;2022-10-26T10:09:15;5.93;;;2.92;;
75687;SDS011;64300;45.034;38.910;2022-10-26T10:11:47;4.97;;;2.58;;
75687;SDS011;64300;45.034;38.910;2022-10-26T10:14:39;6.15;;;2.97;;
75687;SDS011;64300;45.034;38.910;2022-10-26T10:17:34;7.20;;;2.63;;
75687;SDS011;64300;45.034;38.910;2022-10-26T10:20:09;6.85;;;2.40;;
75687;SDS011;64300;45.034;38.910;2022-10-26T10:23:01;6.85;;;2.92;;
75687;SDS011;64300;45.034;38.910;2022-10-26T10:25:37;4.40;;;2.15;;
75687;SDS011;64300;45.034;38.910;2022-10-26T10:28:30;4.22;;;2.10;;
75687;SDS011;64300;45.034;38.910;2022-10-26T10:30:58;3.58;;;1.67;;
75687;SDS011;64300;45.034;38.910;2022-10-26T10:33:31;7.95;;;1.80;;
75687;SDS011;64300;45.034;38.910;2022-10-26T10:36:18;4.25;;;1.70;;
75687;SDS011;64300;45.034;38.910;2022-10-26T10:38:49;8.05;;;2.30;;
75687;SDS011;64300;45.034;38.910;2022-10-26T10:44:20;5.07;;;2.50;;
75687;SDS011;64300;45.034;38.910;2022-10-26T10:46:58;6.13;;;2.28;;
75687;SDS011;64300;45.034;38.910;2022-10-26T11:00:04;7.68;;;3.38;;
75687;SDS011;64300;45.034;38.910;2022-10-26T11:05:48;5.13;;;2.60;;
75687;SDS011;64300;45.034;38.910;2022-10-26T11:11:32;5.57;;;2.58;;
75687;SDS011;64300;45.034;38.910;2022-10-26T11:14:24;7.72;;;2.53;;
75687;SDS011;64300;45.034;38.910;2022-10-26T11:17:06;7.72;;;2.92;;
75687;SDS011;64300;45.034;38.910;2022-10-26T11:19:41;13.32;;;3.40;;
75687;SDS011;64300;45.034;38.910;2022-10-26T11:22:14;9.55;;;4.25;;
75687;SDS011;64300;45.034;38.910;2022-10-26T11:24:49;8.93;;;4.10;;
75687;SDS011;64300;45.034;38.910;2022-10-26T11:27:32;7.47;;;3.35;;
75687;SDS011;64300;45.034;38.910;2022-10-26T11:30:20;9.10;;;3.08;;
75687;SDS011;64300;45.034;38.910;2022-10-26T11:32:52;5.53;;;2.70;;
75687;SDS011;64300;45.034;38.910;2022-10-26T11:35:40;8.70;;;3.08;;
75687;SDS011;64300;45.034;38.910;2022-10-26T11:40:44;9.50;;;3.55;;
75687;SDS011;64300;45.034;38.910;2022-10-26T11:43:21;7.60;;;3.70;;
75687;SDS011;64300;45.034;38.910;2022-10-26T11:48:43;9.82;;;4.00;;
75687;SDS011;64300;45.034;38.910;2022-10-26T11:54:08;12.75;;;4.80;;
75687;SDS011;64300;45.034;38.910;2022-10-26T11:56:41;8.88;;;4.00;;
75687;SDS011;64300;45.034;38.910;2022-10-26T11:59:24;8.27;;;4.00;;
75687;SDS011;64300;45.034;38.910;2022-10-26T12:04:27;9.52;;;4.15;;
75687;SDS011;64300;45.034;38.910;2022-10-26T12:06:55;13.20;;;4.22;;
75687;SDS011;64300;45.034;38.910;2022-10-26T12:09:30;13.65;;;6.30;;
75687;SDS011;64300;45.034;38.910;2022-10-26T12:12:05;11.35;;;5.22;;
75687;SDS011;64300;45.034;38.910;2022-10-26T12:17:32;15.15;;;5.00;;
75687;SDS011;64300;45.034;38.910;2022-10-26T12:20:11;9.55;;;4.60;;
75687;SDS011;64300;45.034;38.910;2022-10-26T12:22:52;11.38;;;5.15;;
75687;SDS011;64300;45.034;38.910;2022-10-26T12:25:19;15.05;;;5.30;;
75687;SDS011;64300;45.034;38.910;2022-10-26T12:37:58;15.63;;;5.90;;
75687;SDS011;64300;45.034;38.910;2022-10-26T12:45:39;17.67;;;6.57;;
75687;SDS011;64300;45.034;38.910;2022-10-26T12:50:46;15.95;;;5.45;;
75687;SDS011;64300;45.034;38.910;2022-10-26T12:53:12;17.55;;;5.97;;
75687;SDS011;64300;45.034;38.910;2022-10-26T12:58:21;17.10;;;5.72;;
75687;SDS011;64300;45.034;38.910;2022-10-26T13:08:39;17.08;;;5.47;;
75687;SDS011;64300;45.034;38.910;2022-10-26T13:11:20;12.45;;;4.90;;
75687;SDS011;64300;45.034;38.910;2022-10-26T13:13:54;14.48;;;5.95;;
75687;SDS011;64300;45.034;38.910;2022-10-26T13:16:26;12.98;;;5.20;;
75687;SDS011;64300;45.034;38.910;2022-10-26T13:18:54;11.65;;;4.88;;
75687;SDS011;64300;45.034;38.910;2022-10-26T13:21:21;12.52;;;5.00;;
75687;SDS011;64300;45.034;38.910;2022-10-26T13:26:18;11.30;;;4.70;;
75687;SDS011;64300;45.034;38.910;2022-10-26T13:28:52;9.82;;;4.07;;
75687;SDS011;64300;45.034;38.910;2022-10-26T13:31:51;11.10;;;4.53;;
75687;SDS011;64300;45.034;38.910;2022-10-26T13:42:23;9.98;;;5.45;;
75687;SDS011;64300;45.034;38.910;2022-10-26T13:50:21;13.55;;;5.18;;
75687;SDS011;64300;45.034;38.910;2022-10-26T13:52:50;14.73;;;5.35;;
75687;SDS011;64300;45.034;38.910;2022-10-26T13:55:25;15.55;;;6.10;;
75687;SDS011;64300;45.034;38.910;2022-10-26T13:58:07;17.00;;;5.88;;
75687;SDS011;64300;45.034;38.910;2022-10-26T14:01:38;15.40;;;6.03;;
75687;SDS011;64300;45.034;38.910;2022-10-26T14:03:49;13.75;;;6.63;;
75687;SDS011;64300;45.034;38.910;2022-10-26T14:06:35;17.55;;;6.43;;
75687;SDS011;64300;45.034;38.910;2022-10-26T14:09:11;18.20;;;5.90;;
75687;SDS011;64300;45.034;38.910;2022-10-26T14:11:43;12.85;;;6.25;;
75687;SDS011;64300;45.034;38.910;2022-10-26T14:14:12;21.17;;;7.50;;
75687;SDS011;64300;45.034;38.910;2022-10-26T14:16:50;24.27;;;7.05;;
75687;SDS011;64300;45.034;38.910;2022-10-26T14:19:21;14.00;;;7.45;;
75687;SDS011;64300;45.034;38.910;2022-10-26T14:21:47;18.20;;;7.47;;
75687;SDS011;64300;45.034;38.910;2022-10-26T14:24:27;20.20;;;7.95;;
75687;SDS011;64300;45.034;38.910;2022-10-26T14:26:55;16.95;;;8.20;;
75687;SDS011;64300;45.034;38.910;2022-10-26T14:29:23;19.52;;;7.57;;
75687;SDS011;64300;45.034;38.910;2022-10-26T14:31:52;16.83;;;8.02;;
75687;SDS011;64300;45.034;38.910;2022-10-26T14:34:19;20.40;;;8.48;;
75687;SDS011;64300;45.034;38.910;2022-10-26T14:37:00;17.00;;;8.43;;
75687;SDS011;64300;45.034;38.910;2022-10-26T14:42:19;19.90;;;8.00;;
75687;SDS011;64300;45.034;38.910;2022-10-26T14:44:50;16.77;;;8.02;;
75687;SDS011;64300;45.034;38.910;2022-10-26T14:47:34;16.10;;;7.40;;
75687;SDS011;64300;45.034;38.910;2022-10-26T14:50:01;16.02;;;8.18;;
75687;SDS011;64300;45.034;38.910;2022-10-26T14:52:28;24.15;;;8.35;;
75687;SDS011;64300;45.034;38.910;2022-10-26T14:57:38;16.40;;;7.95;;
75687;SDS011;64300;45.034;38.910;2022-10-26T15:00:19;22.40;;;7.88;;
75687;SDS011;64300;45.034;38.910;2022-10-26T15:02:46;15.75;;;7.35;;
75687;SDS011;64300;45.034;38.910;2022-10-26T15:07:48;15.77;;;7.70;;
75687;SDS011;64300;45.034;38.910;2022-10-26T15:13:09;16.63;;;7.47;;
75687;SDS011;64300;45.034;38.910;2022-10-26T15:15:36;15.65;;;7.07;;
75687;SDS011;64300;45.034;38.910;2022-10-26T15:18:02;16.27;;;6.90;;
75687;SDS011;64300;45.034;38.910;2022-10-26T15:20:29;18.10;;;6.70;;
75687;SDS011;64300;45.034;38.910;2022-10-26T15:22:59;16.13;;;6.32;;
75687;SDS011;64300;45.034;38.910;2022-10-26T15:25:29;14.52;;;6.40;;
75687;SDS011;64300;45.034;38.910;2022-10-26T15:31:49;18.58;;;8.25;;
75687;SDS011;64300;45.034;38.910;2022-10-26T15:34:25;13.27;;;6.55;;
75687;SDS011;64300;45.034;38.910;2022-10-26T15:36:51;11.57;;;5.43;;
75687;SDS011;64300;45.034;38.910;2022-10-26T15:39:17;14.02;;;5.75;;
75687;SDS011;64300;45.034;38.910;2022-10-26T15:41:46;11.43;;;4.75;;
75687;SDS011;64300;45.034;38.910;2022-10-26T15:47:04;10.40;;;4.47;;
75687;SDS011;64300;45.034;38.910;2022-10-26T15:49:30;14.43;;;4.35;;
75687;SDS011;64300;45.034;38.910;2022-10-26T15:52:01;11.05;;;4.38;;
75687;SDS011;64300;45.034;38.910;2022-10-26T15:54:27;12.48;;;4.35;;
75687;SDS011;64300;45.034;38.910;2022-10-26T15:56:53;8.52;;;4.30;;
75687;SDS011;64300;45.034;38.910;2022-10-26T15:59:20;11.23;;;3.90;;
75687;SDS011;64300;45.034;38.910;2022-10-26T16:01:46;10.38;;;4.95;;
75687;SDS011;64300;45.034;38.910;2022-10-26T16:04:12;8.48;;;4.32;;
75687;SDS011;64300;45.034;38.910;2022-10-26T16:06:39;8.27;;;4.03;;
75687;SDS011;64300;45.034;38.910;2022-10-26T16:09:09;11.98;;;4.15;;
75687;SDS011;64300;45.034;38.910;2022-10-26T16:11:39;8.40;;;3.83;;
75687;SDS011;64300;45.034;38.910;2022-10-26T16:14:06;9.10;;;3.75;;
75687;SDS011;64300;45.034;38.910;2022-10-26T16:16:34;7.85;;;3.22;;
75687;SDS011;64300;45.034;38.910;2022-10-26T16:19:03;14.50;;;3.63;;
75687;SDS011;64300;45.034;38.910;2022-10-26T16:21:30;11.70;;;4.53;;
75687;SDS011;64300;45.034;38.910;2022-10-26T16:23:56;14.70;;;4.22;;
75687;SDS011;64300;45.034;38.910;2022-10-26T16:26:22;13.40;;;3.88;;
75687;SDS011;64300;45.034;38.910;2022-10-26T16:28:52;8.38;;;3.80;;
75687;SDS011;64300;45.034;38.910;2022-10-26T16:31:19;14.23;;;4.95;;
75687;SDS011;64300;45.034;38.910;2022-10-26T16:33:48;10.88;;;4.18;;
75687;SDS011;64300;45.034;38.910;2022-10-26T16:36:24;13.77;;;5.13;;
75687;SDS011;64300;45.034;38.910;2022-10-26T16:38:53;18.30;;;5.68;;
75687;SDS011;64300;45.034;38.910;2022-10-26T16:41:19;12.25;;;5.28;;
75687;SDS011;64300;45.034;38.910;2022-10-26T16:43:45;11.07;;;4.95;;
75687;SDS011;64300;45.034;38.910;2022-10-26T16:48:38;9.55;;;4.80;;
75687;SDS011;64300;45.034;38.910;2022-10-26T16:51:10;15.50;;;5.00;;
75687;SDS011;64300;45.034;38.910;2022-10-26T16:53:40;19.08;;;7.22;;
75687;SDS011;64300;45.034;38.910;2022-10-26T16:56:11;12.15;;;5.93;;
75687;SDS011;64300;45.034;38.910;2022-10-26T16:58:38;12.55;;;5.47;;
75687;SDS011;64300;45.034;38.910;2022-10-26T17:01:05;13.65;;;6.03;;
75687;SDS011;64300;45.034;38.910;2022-10-26T17:03:32;14.98;;;6.38;;
75687;SDS011;64300;45.034;38.910;2022-10-26T17:06:00;14.30;;;5.80;;
75687;SDS011;64300;45.034;38.910;2022-10-26T17:08:29;12.77;;;5.70;;
75687;SDS011;64300;45.034;38.910;2022-10-26T17:11:01;10.82;;;5.00;;
75687;SDS011;64300;45.034;38.910;2022-10-26T17:13:38;11.93;;;5.32;;
75687;SDS011;64300;45.034;38.910;2022-10-26T17:16:07;14.82;;;5.55;;
75687;SDS011;64300;45.034;38.910;2022-10-26T17:18:38;13.23;;;5.35;;
75687;SDS011;64300;45.034;38.910;2022-10-26T17:21:06;13.60;;;4.85;;
75687;SDS011;64300;45.034;38.910;2022-10-26T17:23:32;14.00;;;5.00;;
75687;SDS011;64300;45.034;38.910;2022-10-26T17:26:05;15.60;;;5.95;;
75687;SDS011;64300;45.034;38.910;2022-10-26T17:28:39;13.73;;;5.75;;
75687;SDS011;64300;45.034;38.910;2022-10-26T17:33:34;10.63;;;5.22;;
75687;SDS011;64300;45.034;38.910;2022-10-26T17:36:03;11.60;;;5.13;;
75687;SDS011;64300;45.034;38.910;2022-10-26T17:38:34;11.07;;;4.85;;
75687;SDS011;64300;45.034;38.910;2022-10-26T17:41:05;10.77;;;5.05;;
75687;SDS011;64300;45.034;38.910;2022-10-26T17:43:33;15.48;;;5.93;;
75687;SDS011;64300;45.034;38.910;2022-10-26T17:46:04;15.70;;;6.22;;
75687;SDS011;64300;45.034;38.910;2022-10-26T17:48:31;15.50;;;7.15;;
75687;SDS011;64300;45.034;38.910;2022-10-26T17:50:59;15.15;;;7.50;;
75687;SDS011;64300;45.034;38.910;2022-10-26T17:53:26;13.05;;;5.53;;
75687;SDS011;64300;45.034;38.910;2022-10-26T17:56:02;14.55;;;5.13;;
75687;SDS011;64300;45.034;38.910;2022-10-26T17:58:31;9.40;;;5.60;;
75687;SDS011;64300;45.034;38.910;2022-10-26T18:01:01;14.93;;;5.93;;
75687;SDS011;64300;45.034;38.910;2022-10-26T18:03:29;9.30;;;4.95;;
75687;SDS011;64300;45.034;38.910;2022-10-26T18:05:55;10.50;;;5.28;;
75687;SDS011;64300;45.034;38.910;2022-10-26T18:08:23;14.27;;;5.40;;
75687;SDS011;64300;45.034;38.910;2022-10-26T18:10:49;9.18;;;4.85;;
75687;SDS011;64300;45.034;38.910;2022-10-26T18:13:17;11.10;;;5.53;;
75687;SDS011;64300;45.034;38.910;2022-10-26T18:15:43;12.40;;;5.45;;
75687;SDS011;64300;45.034;38.910;2022-10-26T18:18:10;11.30;;;5.63;;
75687;SDS011;64300;45.034;38.910;2022-10-26T18:20:36;13.10;;;6.15;;
75687;SDS011;64300;45.034;38.910;2022-10-26T18:23:02;11.38;;;6.15;;
75687;SDS011;64300;45.034;38.910;2022-10-26T18:25:29;11.35;;;6.00;;
75687;SDS011;64300;45.034;38.910;2022-10-26T18:27:56;11.35;;;5.63;;
75687;SDS011;64300;45.034;38.910;2022-10-26T18:30:23;12.30;;;5.82;;
75687;SDS011;64300;45.034;38.910;2022-10-26T18:32:49;12.43;;;6.20;;
75687;SDS011;64300;45.034;38.910;2022-10-26T18:35:16;11.68;;;5.57;;
75687;SDS011;64300;45.034;38.910;2022-10-26T18:37:43;13.32;;;5.88;;
75687;SDS011;64300;45.034;38.910;2022-10-26T18:40:09;9.23;;;5.00;;
75687;SDS011;64300;45.034;38.910;2022-10-26T18:42:39;11.38;;;5.03;;
75687;SDS011;64300;45.034;38.910;2022-10-26T18:45:05;11.27;;;5.55;;
75687;SDS011;64300;45.034;38.910;2022-10-26T18:47:32;12.88;;;5.20;;
75687;SDS011;64300;45.034;38.910;2022-10-26T18:49:59;10.98;;;4.85;;
75687;SDS011;64300;45.034;38.910;2022-10-26T18:52:29;9.52;;;4.90;;
75687;SDS011;64300;45.034;38.910;2022-10-26T18:54:55;10.05;;;4.80;;
75687;SDS011;64300;45.034;38.910;2022-10-26T18:57:23;10.55;;;4.72;;
75687;SDS011;64300;45.034;38.910;2022-10-26T18:59:51;10.73;;;4.55;;
75687;SDS011;64300;45.034;38.910;2022-10-26T19:02:18;10.93;;;5.03;;
75687;SDS011;64300;45.034;38.910;2022-10-26T19:04:45;14.25;;;7.22;;
75687;SDS011;64300;45.034;38.910;2022-10-26T19:07:11;7.78;;;4.20;;
75687;SDS011;64300;45.034;38.910;2022-10-26T19:09:37;10.75;;;3.90;;
75687;SDS011;64300;45.034;38.910;2022-10-26T19:12:04;8.90;;;3.70;;
75687;SDS011;64300;45.034;38.910;2022-10-26T19:14:31;9.68;;;3.38;;
75687;SDS011;64300;45.034;38.910;2022-10-26T19:16:57;7.00;;;3.80;;
75687;SDS011;64300;45.034;38.910;2022-10-26T19:19:23;6.03;;;3.47;;